sensor_id;sensor_type;location;lat;lon;timestamp;temperature;humidity
4386;DHT22;2207;53.540;10.042;2022-09-09T00:01:36;15.00;99.90
4386;DHT22;2207;53.540;10.042;2022-09-09T00:04:12;15.10;99.90
4386;DHT22;2207;53.540;10.042;2022-09-09T00:06:45;15.10;99.90
4386;DHT22;2207;53.540;10.042;2022-09-09T00:09:14;15.10;99.90
4386;DHT22;2207;53.540;10.042;2022-09-09T00:11:46;15.10;99.90
4386;DHT22;2207;53.540;10.042;2022-09-09T00:14:20;15.20;99.90
4386;DHT22;2207;53.540;10.042;2022-09-09T00:16:50;15.20;99.90
4386;DHT22;2207;53.540;10.042;2022-09-09T00:19:20;15.20;99.90
4386;DHT22;2207;53.540;10.042;2022-09-09T00:21:50;15.20;99.90
4386;DHT22;2207;53.540;10.042;2022-09-09T00:24:23;15.10;99.90
4386;DHT22;2207;53.540;10.042;2022-09-09T00:26:53;15.20;99.90
4386;DHT22;2207;53.540;10.042;2022-09-09T00:29:23;15.20;99.90
4386;DHT22;2207;53.540;10.042;2022-09-09T00:31:55;15.20;99.90
4386;DHT22;2207;53.540;10.042;2022-09-09T00:34:24;15.20;99.90
4386;DHT22;2207;53.540;10.042;2022-09-09T00:36:54;15.20;99.90
4386;DHT22;2207;53.540;10.042;2022-09-09T00:39:25;15.20;99.90
4386;DHT22;2207;53.540;10.042;2022-09-09T00:41:57;15.20;99.90
4386;DHT22;2207;53.540;10.042;2022-09-09T00:44:30;15.20;99.90
4386;DHT22;2207;53.540;10.042;2022-09-09T00:47:12;15.20;99.90
4386;DHT22;2207;53.540;10.042;2022-09-09T00:49:46;15.20;99.90
4386;DHT22;2207;53.540;10.042;2022-09-09T00:52:23;15.10;99.90
4386;DHT22;2207;53.540;10.042;2022-09-09T00:54:52;15.10;99.90
4386;DHT22;2207;53.540;10.042;2022-09-09T00:57:23;15.10;99.90
4386;DHT22;2207;53.540;10.042;2022-09-09T00:59:52;15.10;99.90
4386;DHT22;2207;53.540;10.042;2022-09-09T01:02:26;15.10;99.90
4386;DHT22;2207;53.540;10.042;2022-09-09T01:04:54;15.00;99.90
4386;DHT22;2207;53.540;10.042;2022-09-09T01:07:22;15.00;99.90
4386;DHT22;2207;53.540;10.042;2022-09-09T01:09:54;15.00;99.90
4386;DHT22;2207;53.540;10.042;2022-09-09T01:12:26;15.00;99.90
4386;DHT22;2207;53.540;10.042;2022-09-09T01:14:56;15.00;99.90
4386;DHT22;2207;53.540;10.042;2022-09-09T01:17:26;14.90;99.90
4386;DHT22;2207;53.540;10.042;2022-09-09T01:20:04;14.90;99.90
4386;DHT22;2207;53.540;10.042;2022-09-09T01:22:36;14.90;99.90
4386;DHT22;2207;53.540;10.042;2022-09-09T01:25:19;14.80;99.90
4386;DHT22;2207;53.540;10.042;2022-09-09T01:27:48;14.80;99.90
4386;DHT22;2207;53.540;10.042;2022-09-09T01:30:17;14.80;99.90
4386;DHT22;2207;53.540;10.042;2022-09-09T01:32:45;14.80;99.90
4386;DHT22;2207;53.540;10.042;2022-09-09T01:35:13;14.80;99.90
4386;DHT22;2207;53.540;10.042;2022-09-09T01:37:41;14.80;99.90
4386;DHT22;2207;53.540;10.042;2022-09-09T01:40:08;14.80;99.90
4386;DHT22;2207;53.540;10.042;2022-09-09T01:42:35;14.80;99.90
4386;DHT22;2207;53.540;10.042;2022-09-09T01:45:04;14.80;99.90
4386;DHT22;2207;53.540;10.042;2022-09-09T01:47:30;14.90;99.90
4386;DHT22;2207;53.540;10.042;2022-09-09T01:49:57;14.80;99.90
4386;DHT22;2207;53.540;10.042;2022-09-09T01:52:24;14.80;99.90
4386;DHT22;2207;53.540;10.042;2022-09-09T01:54:51;14.80;99.90
4386;DHT22;2207;53.540;10.042;2022-09-09T01:57:19;14.70;99.90
4386;DHT22;2207;53.540;10.042;2022-09-09T01:59:53;14.70;99.90
4386;DHT22;2207;53.540;10.042;2022-09-09T02:02:26;14.60;99.90
4386;DHT22;2207;53.540;10.042;2022-09-09T02:05:00;14.50;99.90
4386;DHT22;2207;53.540;10.042;2022-09-09T02:07:35;14.50;99.90
4386;DHT22;2207;53.540;10.042;2022-09-09T02:10:05;14.40;99.90
4386;DHT22;2207;53.540;10.042;2022-09-09T02:12:37;14.40;99.90
4386;DHT22;2207;53.540;10.042;2022-09-09T02:15:07;14.30;99.90
4386;DHT22;2207;53.540;10.042;2022-09-09T02:17:38;14.30;99.90
4386;DHT22;2207;53.540;10.042;2022-09-09T02:20:08;14.40;99.90
4386;DHT22;2207;53.540;10.042;2022-09-09T02:22:37;14.40;99.90
4386;DHT22;2207;53.540;10.042;2022-09-09T02:25:05;14.40;99.90
4386;DHT22;2207;53.540;10.042;2022-09-09T02:27:33;14.50;99.90
4386;DHT22;2207;53.540;10.042;2022-09-09T02:30:00;14.40;99.90
4386;DHT22;2207;53.540;10.042;2022-09-09T02:32:28;14.50;99.90
4386;DHT22;2207;53.540;10.042;2022-09-09T02:34:59;14.40;99.90
4386;DHT22;2207;53.540;10.042;2022-09-09T02:37:27;14.40;99.90
4386;DHT22;2207;53.540;10.042;2022-09-09T02:39:56;14.30;99.90
4386;DHT22;2207;53.540;10.042;2022-09-09T02:42:23;14.20;99.90
4386;DHT22;2207;53.540;10.042;2022-09-09T02:44:50;14.20;99.90
4386;DHT22;2207;53.540;10.042;2022-09-09T02:47:20;14.10;99.90
4386;DHT22;2207;53.540;10.042;2022-09-09T02:49:52;14.10;99.90
4386;DHT22;2207;53.540;10.042;2022-09-09T02:52:26;14.20;99.90
4386;DHT22;2207;53.540;10.042;2022-09-09T02:54:55;14.20;99.90
4386;DHT22;2207;53.540;10.042;2022-09-09T02:57:25;14.20;99.90
4386;DHT22;2207;53.540;10.042;2022-09-09T02:59:56;14.30;99.90
4386;DHT22;2207;53.540;10.042;2022-09-09T03:02:23;14.30;99.90
4386;DHT22;2207;53.540;10.042;2022-09-09T03:04:50;14.20;99.90
4386;DHT22;2207;53.540;10.042;2022-09-09T03:07:17;14.20;99.90
4386;DHT22;2207;53.540;10.042;2022-09-09T03:09:45;14.20;99.90
4386;DHT22;2207;53.540;10.042;2022-09-09T03:12:12;14.10;99.90
4386;DHT22;2207;53.540;10.042;2022-09-09T03:14:39;14.10;99.90
4386;DHT22;2207;53.540;10.042;2022-09-09T03:17:06;14.10;99.90
4386;DHT22;2207;53.540;10.042;2022-09-09T03:19:35;14.10;99.90
4386;DHT22;2207;53.540;10.042;2022-09-09T03:22:02;14.10;99.90
4386;DHT22;2207;53.540;10.042;2022-09-09T03:24:30;14.10;99.90
4386;DHT22;2207;53.540;10.042;2022-09-09T03:26:58;14.00;99.90
4386;DHT22;2207;53.540;10.042;2022-09-09T03:29:25;14.10;99.90
4386;DHT22;2207;53.540;10.042;2022-09-09T03:31:53;14.00;99.90
4386;DHT22;2207;53.540;10.042;2022-09-09T03:34:19;14.00;99.90
4386;DHT22;2207;53.540;10.042;2022-09-09T03:36:46;13.90;99.90
4386;DHT22;2207;53.540;10.042;2022-09-09T03:39:14;13.90;99.90
4386;DHT22;2207;53.540;10.042;2022-09-09T03:41:40;13.90;99.90
4386;DHT22;2207;53.540;10.042;2022-09-09T03:44:08;13.90;99.90
4386;DHT22;2207;53.540;10.042;2022-09-09T03:46:35;13.90;99.90
4386;DHT22;2207;53.540;10.042;2022-09-09T03:49:03;13.90;99.90
4386;DHT22;2207;53.540;10.042;2022-09-09T03:51:30;13.90;99.90
4386;DHT22;2207;53.540;10.042;2022-09-09T03:53:57;13.90;99.90
4386;DHT22;2207;53.540;10.042;2022-09-09T03:56:24;13.90;99.90
4386;DHT22;2207;53.540;10.042;2022-09-09T03:58:50;13.90;99.90
4386;DHT22;2207;53.540;10.042;2022-09-09T04:01:19;13.90;99.90
4386;DHT22;2207;53.540;10.042;2022-09-09T04:03:45;14.00;99.90
4386;DHT22;2207;53.540;10.042;2022-09-09T04:06:13;13.90;99.90
4386;DHT22;2207;53.540;10.042;2022-09-09T04:08:40;13.90;99.90
4386;DHT22;2207;53.540;10.042;2022-09-09T04:11:07;13.90;99.90
4386;DHT22;2207;53.540;10.042;2022-09-09T04:13:34;13.90;99.90
4386;DHT22;2207;53.540;10.042;2022-09-09T04:16:03;13.90;99.90
4386;DHT22;2207;53.540;10.042;2022-09-09T04:18:31;13.80;99.90
4386;DHT22;2207;53.540;10.042;2022-09-09T04:20:58;13.80;99.90
4386;DHT22;2207;53.540;10.042;2022-09-09T04:23:25;13.80;99.90
4386;DHT22;2207;53.540;10.042;2022-09-09T04:25:54;13.70;99.90
4386;DHT22;2207;53.540;10.042;2022-09-09T04:28:22;13.70;99.90
4386;DHT22;2207;53.540;10.042;2022-09-09T04:30:49;13.60;99.90
4386;DHT22;2207;53.540;10.042;2022-09-09T04:33:16;13.60;99.90
4386;DHT22;2207;53.540;10.042;2022-09-09T04:35:45;13.60;99.90
4386;DHT22;2207;53.540;10.042;2022-09-09T04:38:13;13.60;99.90
4386;DHT22;2207;53.540;10.042;2022-09-09T04:40:41;13.70;99.90
4386;DHT22;2207;53.540;10.042;2022-09-09T04:43:08;13.70;99.90
4386;DHT22;2207;53.540;10.042;2022-09-09T04:45:35;13.70;99.90
4386;DHT22;2207;53.540;10.042;2022-09-09T04:48:02;13.80;99.90
4386;DHT22;2207;53.540;10.042;2022-09-09T04:50:29;13.80;99.90
4386;DHT22;2207;53.540;10.042;2022-09-09T04:52:59;13.90;99.90
4386;DHT22;2207;53.540;10.042;2022-09-09T04:55:27;13.90;99.90
4386;DHT22;2207;53.540;10.042;2022-09-09T04:57:54;14.00;99.90
4386;DHT22;2207;53.540;10.042;2022-09-09T05:00:20;14.10;99.90
4386;DHT22;2207;53.540;10.042;2022-09-09T05:02:48;14.10;99.90
4386;DHT22;2207;53.540;10.042;2022-09-09T05:05:14;14.10;99.90
4386;DHT22;2207;53.540;10.042;2022-09-09T05:07:41;14.10;99.90
4386;DHT22;2207;53.540;10.042;2022-09-09T05:10:10;14.00;99.90
4386;DHT22;2207;53.540;10.042;2022-09-09T05:12:36;14.00;99.90
4386;DHT22;2207;53.540;10.042;2022-09-09T05:15:04;14.00;99.90
4386;DHT22;2207;53.540;10.042;2022-09-09T05:17:31;14.00;99.90
4386;DHT22;2207;53.540;10.042;2022-09-09T05:19:59;14.00;99.90
4386;DHT22;2207;53.540;10.042;2022-09-09T05:22:26;14.00;99.90
4386;DHT22;2207;53.540;10.042;2022-09-09T05:24:53;14.00;99.90
4386;DHT22;2207;53.540;10.042;2022-09-09T05:27:21;14.00;99.90
4386;DHT22;2207;53.540;10.042;2022-09-09T05:29:48;14.00;99.90
4386;DHT22;2207;53.540;10.042;2022-09-09T05:32:15;14.20;99.90
4386;DHT22;2207;53.540;10.042;2022-09-09T05:34:43;14.30;99.90
4386;DHT22;2207;53.540;10.042;2022-09-09T05:37:10;14.40;99.90
4386;DHT22;2207;53.540;10.042;2022-09-09T05:39:37;14.60;99.90
4386;DHT22;2207;53.540;10.042;2022-09-09T05:42:05;14.80;99.90
4386;DHT22;2207;53.540;10.042;2022-09-09T05:44:35;14.90;99.90
4386;DHT22;2207;53.540;10.042;2022-09-09T05:47:03;15.10;99.90
4386;DHT22;2207;53.540;10.042;2022-09-09T05:49:30;15.20;99.90
4386;DHT22;2207;53.540;10.042;2022-09-09T05:52:02;15.50;99.90
4386;DHT22;2207;53.540;10.042;2022-09-09T05:54:30;15.70;99.90
4386;DHT22;2207;53.540;10.042;2022-09-09T05:56:58;15.90;99.90
4386;DHT22;2207;53.540;10.042;2022-09-09T05:59:25;16.00;99.90
4386;DHT22;2207;53.540;10.042;2022-09-09T06:01:55;16.00;99.90
4386;DHT22;2207;53.540;10.042;2022-09-09T06:04:22;16.00;99.90
4386;DHT22;2207;53.540;10.042;2022-09-09T06:06:50;16.00;99.90
4386;DHT22;2207;53.540;10.042;2022-09-09T06:09:17;16.20;99.90
4386;DHT22;2207;53.540;10.042;2022-09-09T06:11:44;16.40;99.90
4386;DHT22;2207;53.540;10.042;2022-09-09T06:14:11;16.50;99.90
4386;DHT22;2207;53.540;10.042;2022-09-09T06:16:38;16.60;99.90
4386;DHT22;2207;53.540;10.042;2022-09-09T06:19:09;16.70;99.90
4386;DHT22;2207;53.540;10.042;2022-09-09T06:21:37;16.70;99.90
4386;DHT22;2207;53.540;10.042;2022-09-09T06:24:04;16.50;99.90
4386;DHT22;2207;53.540;10.042;2022-09-09T06:26:33;16.30;99.90
4386;DHT22;2207;53.540;10.042;2022-09-09T06:29:01;16.20;99.90
4386;DHT22;2207;53.540;10.042;2022-09-09T06:31:29;16.00;99.90
4386;DHT22;2207;53.540;10.042;2022-09-09T06:33:57;15.90;99.90
4386;DHT22;2207;53.540;10.042;2022-09-09T06:36:34;15.80;99.90
4386;DHT22;2207;53.540;10.042;2022-09-09T06:39:02;15.70;99.90
4386;DHT22;2207;53.540;10.042;2022-09-09T06:41:31;15.80;99.90
4386;DHT22;2207;53.540;10.042;2022-09-09T06:43:59;15.80;99.90
4386;DHT22;2207;53.540;10.042;2022-09-09T06:46:30;15.90;99.90
4386;DHT22;2207;53.540;10.042;2022-09-09T06:48:58;15.90;99.90
4386;DHT22;2207;53.540;10.042;2022-09-09T06:51:28;16.10;99.90
4386;DHT22;2207;53.540;10.042;2022-09-09T06:53:56;16.20;99.90
4386;DHT22;2207;53.540;10.042;2022-09-09T06:56:24;16.40;99.90
4386;DHT22;2207;53.540;10.042;2022-09-09T06:58:52;16.80;99.90
4386;DHT22;2207;53.540;10.042;2022-09-09T07:01:20;17.50;99.90
4386;DHT22;2207;53.540;10.042;2022-09-09T07:03:49;17.90;99.90
4386;DHT22;2207;53.540;10.042;2022-09-09T07:06:19;18.30;99.90
4386;DHT22;2207;53.540;10.042;2022-09-09T07:08:53;18.60;99.90
4386;DHT22;2207;53.540;10.042;2022-09-09T07:11:28;18.70;99.90
4386;DHT22;2207;53.540;10.042;2022-09-09T07:14:05;18.70;99.90
4386;DHT22;2207;53.540;10.042;2022-09-09T07:16:35;18.60;99.90
4386;DHT22;2207;53.540;10.042;2022-09-09T07:19:07;18.50;99.90
4386;DHT22;2207;53.540;10.042;2022-09-09T07:21:40;18.40;99.90
4386;DHT22;2207;53.540;10.042;2022-09-09T07:24:17;18.30;99.90
4386;DHT22;2207;53.540;10.042;2022-09-09T07:26:58;18.20;99.90
4386;DHT22;2207;53.540;10.042;2022-09-09T07:29:32;18.20;99.90
4386;DHT22;2207;53.540;10.042;2022-09-09T07:32:00;18.30;99.90
4386;DHT22;2207;53.540;10.042;2022-09-09T07:34:31;18.70;99.90
4386;DHT22;2207;53.540;10.042;2022-09-09T07:37:03;19.70;99.90
4386;DHT22;2207;53.540;10.042;2022-09-09T07:39:35;20.30;99.90
4386;DHT22;2207;53.540;10.042;2022-09-09T07:42:03;20.20;99.90
4386;DHT22;2207;53.540;10.042;2022-09-09T07:44:31;20.00;99.90
4386;DHT22;2207;53.540;10.042;2022-09-09T07:47:01;19.80;99.90
4386;DHT22;2207;53.540;10.042;2022-09-09T07:49:33;19.70;99.90
4386;DHT22;2207;53.540;10.042;2022-09-09T07:52:03;19.60;99.90
4386;DHT22;2207;53.540;10.042;2022-09-09T07:54:30;19.80;99.90
4386;DHT22;2207;53.540;10.042;2022-09-09T07:57:00;20.10;99.90
4386;DHT22;2207;53.540;10.042;2022-09-09T07:59:30;20.20;99.90
4386;DHT22;2207;53.540;10.042;2022-09-09T08:01:58;20.20;99.90
4386;DHT22;2207;53.540;10.042;2022-09-09T08:04:26;20.10;99.90
4386;DHT22;2207;53.540;10.042;2022-09-09T08:06:57;20.00;99.90
4386;DHT22;2207;53.540;10.042;2022-09-09T08:09:29;20.00;99.90
4386;DHT22;2207;53.540;10.042;2022-09-09T08:12:01;20.20;99.90
4386;DHT22;2207;53.540;10.042;2022-09-09T08:14:33;20.50;99.90
4386;DHT22;2207;53.540;10.042;2022-09-09T08:17:00;20.90;99.90
4386;DHT22;2207;53.540;10.042;2022-09-09T08:19:27;21.00;99.90
4386;DHT22;2207;53.540;10.042;2022-09-09T08:22:01;20.90;99.90
4386;DHT22;2207;53.540;10.042;2022-09-09T08:24:29;20.80;99.90
4386;DHT22;2207;53.540;10.042;2022-09-09T08:26:56;21.10;99.90
4386;DHT22;2207;53.540;10.042;2022-09-09T08:29:27;21.30;99.90
4386;DHT22;2207;53.540;10.042;2022-09-09T08:31:55;21.30;99.90
4386;DHT22;2207;53.540;10.042;2022-09-09T08:34:25;21.20;99.90
4386;DHT22;2207;53.540;10.042;2022-09-09T08:36:54;21.10;99.90
4386;DHT22;2207;53.540;10.042;2022-09-09T08:39:26;21.20;99.90
4386;DHT22;2207;53.540;10.042;2022-09-09T08:42:06;21.10;99.90
4386;DHT22;2207;53.540;10.042;2022-09-09T08:44:42;21.00;99.90
4386;DHT22;2207;53.540;10.042;2022-09-09T08:47:16;20.80;99.90
4386;DHT22;2207;53.540;10.042;2022-09-09T08:49:55;20.80;99.90
4386;DHT22;2207;53.540;10.042;2022-09-09T08:52:28;20.70;99.90
4386;DHT22;2207;53.540;10.042;2022-09-09T08:55:12;20.70;99.90
4386;DHT22;2207;53.540;10.042;2022-09-09T08:57:43;20.60;99.90
4386;DHT22;2207;53.540;10.042;2022-09-09T09:00:14;20.80;99.90
4386;DHT22;2207;53.540;10.042;2022-09-09T09:02:45;21.20;99.90
4386;DHT22;2207;53.540;10.042;2022-09-09T09:05:23;21.60;99.90
4386;DHT22;2207;53.540;10.042;2022-09-09T09:08:02;22.10;99.90
4386;DHT22;2207;53.540;10.042;2022-09-09T09:10:50;22.60;99.90
4386;DHT22;2207;53.540;10.042;2022-09-09T09:13:27;23.10;99.90
4386;DHT22;2207;53.540;10.042;2022-09-09T09:16:14;23.30;99.90
4386;DHT22;2207;53.540;10.042;2022-09-09T09:18:47;23.50;99.90
4386;DHT22;2207;53.540;10.042;2022-09-09T09:21:16;23.50;99.90
4386;DHT22;2207;53.540;10.042;2022-09-09T09:23:46;23.60;99.90
4386;DHT22;2207;53.540;10.042;2022-09-09T09:26:16;23.70;99.90
4386;DHT22;2207;53.540;10.042;2022-09-09T09:28:46;23.50;99.90
4386;DHT22;2207;53.540;10.042;2022-09-09T09:31:17;23.30;99.90
4386;DHT22;2207;53.540;10.042;2022-09-09T09:33:47;23.20;99.90
4386;DHT22;2207;53.540;10.042;2022-09-09T09:36:20;23.20;99.90
4386;DHT22;2207;53.540;10.042;2022-09-09T09:38:52;23.40;99.90
4386;DHT22;2207;53.540;10.042;2022-09-09T09:41:29;23.50;99.90
4386;DHT22;2207;53.540;10.042;2022-09-09T09:43:59;23.60;99.90
4386;DHT22;2207;53.540;10.042;2022-09-09T09:46:34;23.80;99.90
4386;DHT22;2207;53.540;10.042;2022-09-09T09:49:09;24.10;99.90
4386;DHT22;2207;53.540;10.042;2022-09-09T09:51:41;24.40;99.90
4386;DHT22;2207;53.540;10.042;2022-09-09T09:54:17;24.70;99.90
4386;DHT22;2207;53.540;10.042;2022-09-09T09:56:46;24.80;99.90
4386;DHT22;2207;53.540;10.042;2022-09-09T09:59:33;24.90;99.90
4386;DHT22;2207;53.540;10.042;2022-09-09T10:02:15;25.00;99.90
4386;DHT22;2207;53.540;10.042;2022-09-09T10:04:59;25.00;99.90
4386;DHT22;2207;53.540;10.042;2022-09-09T10:07:34;24.60;99.90
4386;DHT22;2207;53.540;10.042;2022-09-09T10:10:13;23.80;99.90
4386;DHT22;2207;53.540;10.042;2022-09-09T10:12:54;23.40;99.90
4386;DHT22;2207;53.540;10.042;2022-09-09T10:15:32;23.00;99.90
4386;DHT22;2207;53.540;10.042;2022-09-09T10:18:12;22.80;99.90
4386;DHT22;2207;53.540;10.042;2022-09-09T10:20:45;22.30;99.90
4386;DHT22;2207;53.540;10.042;2022-09-09T10:23:21;22.10;99.90
4386;DHT22;2207;53.540;10.042;2022-09-09T10:25:59;22.00;99.90
4386;DHT22;2207;53.540;10.042;2022-09-09T10:29:01;21.80;99.90
4386;DHT22;2207;53.540;10.042;2022-09-09T10:31:36;21.60;99.90
4386;DHT22;2207;53.540;10.042;2022-09-09T10:34:12;21.60;99.90
4386;DHT22;2207;53.540;10.042;2022-09-09T10:36:43;21.60;99.90
4386;DHT22;2207;53.540;10.042;2022-09-09T10:39:16;21.80;99.90
4386;DHT22;2207;53.540;10.042;2022-09-09T10:41:50;22.30;99.90
4386;DHT22;2207;53.540;10.042;2022-09-09T10:44:25;22.60;99.90
4386;DHT22;2207;53.540;10.042;2022-09-09T10:47:13;22.70;99.90
4386;DHT22;2207;53.540;10.042;2022-09-09T10:49:51;22.50;99.90
4386;DHT22;2207;53.540;10.042;2022-09-09T10:52:27;22.30;99.90
4386;DHT22;2207;53.540;10.042;2022-09-09T10:55:02;21.90;99.90
4386;DHT22;2207;53.540;10.042;2022-09-09T10:57:36;21.60;99.90
4386;DHT22;2207;53.540;10.042;2022-09-09T11:00:14;21.40;99.90
4386;DHT22;2207;53.540;10.042;2022-09-09T11:02:42;21.20;99.90
4386;DHT22;2207;53.540;10.042;2022-09-09T11:05:14;21.10;99.90
4386;DHT22;2207;53.540;10.042;2022-09-09T11:07:46;21.00;99.90
4386;DHT22;2207;53.540;10.042;2022-09-09T11:10:18;21.10;99.90
4386;DHT22;2207;53.540;10.042;2022-09-09T11:12:46;21.30;99.90
4386;DHT22;2207;53.540;10.042;2022-09-09T11:15:14;21.40;99.90
4386;DHT22;2207;53.540;10.042;2022-09-09T11:17:47;21.40;99.90
4386;DHT22;2207;53.540;10.042;2022-09-09T11:20:17;21.60;99.90
4386;DHT22;2207;53.540;10.042;2022-09-09T11:22:46;21.70;99.90
4386;DHT22;2207;53.540;10.042;2022-09-09T11:25:15;21.80;99.90
4386;DHT22;2207;53.540;10.042;2022-09-09T11:27:56;22.10;99.90
4386;DHT22;2207;53.540;10.042;2022-09-09T11:30:29;22.30;99.90
4386;DHT22;2207;53.540;10.042;2022-09-09T11:35:50;22.60;99.90
4386;DHT22;2207;53.540;10.042;2022-09-09T11:38:26;22.80;99.90
4386;DHT22;2207;53.540;10.042;2022-09-09T11:40:55;22.80;99.90
4386;DHT22;2207;53.540;10.042;2022-09-09T11:43:27;22.80;99.90
4386;DHT22;2207;53.540;10.042;2022-09-09T11:45:55;22.90;99.90
4386;DHT22;2207;53.540;10.042;2022-09-09T11:48:29;22.90;99.90
4386;DHT22;2207;53.540;10.042;2022-09-09T11:51:00;22.80;99.90
4386;DHT22;2207;53.540;10.042;2022-09-09T11:53:30;22.70;99.90
4386;DHT22;2207;53.540;10.042;2022-09-09T11:56:02;22.70;99.90
4386;DHT22;2207;53.540;10.042;2022-09-09T11:58:31;23.00;99.90
4386;DHT22;2207;53.540;10.042;2022-09-09T12:01:00;23.40;99.90
4386;DHT22;2207;53.540;10.042;2022-09-09T12:03:33;23.60;99.90
4386;DHT22;2207;53.540;10.042;2022-09-09T12:06:10;23.80;99.90
4386;DHT22;2207;53.540;10.042;2022-09-09T12:08:40;23.70;99.90
4386;DHT22;2207;53.540;10.042;2022-09-09T12:11:09;23.30;99.90
4386;DHT22;2207;53.540;10.042;2022-09-09T12:13:36;23.00;99.90
4386;DHT22;2207;53.540;10.042;2022-09-09T12:16:04;22.90;99.90
4386;DHT22;2207;53.540;10.042;2022-09-09T12:18:33;22.90;99.90
4386;DHT22;2207;53.540;10.042;2022-09-09T12:21:02;23.00;99.90
4386;DHT22;2207;53.540;10.042;2022-09-09T12:23:39;23.20;99.90
4386;DHT22;2207;53.540;10.042;2022-09-09T12:26:17;23.20;99.90
4386;DHT22;2207;53.540;10.042;2022-09-09T12:28:50;23.40;99.90
4386;DHT22;2207;53.540;10.042;2022-09-09T12:31:21;23.60;99.90
4386;DHT22;2207;53.540;10.042;2022-09-09T12:33:51;23.80;99.90
4386;DHT22;2207;53.540;10.042;2022-09-09T12:36:23;24.20;99.90
4386;DHT22;2207;53.540;10.042;2022-09-09T12:38:52;24.20;99.90
4386;DHT22;2207;53.540;10.042;2022-09-09T12:41:21;24.30;99.90
4386;DHT22;2207;53.540;10.042;2022-09-09T12:43:48;24.30;99.90
4386;DHT22;2207;53.540;10.042;2022-09-09T12:46:18;24.10;99.90
4386;DHT22;2207;53.540;10.042;2022-09-09T12:48:47;23.70;99.90
4386;DHT22;2207;53.540;10.042;2022-09-09T12:51:17;23.40;99.90
4386;DHT22;2207;53.540;10.042;2022-09-09T12:53:45;23.20;99.90
4386;DHT22;2207;53.540;10.042;2022-09-09T12:56:20;23.00;99.90
4386;DHT22;2207;53.540;10.042;2022-09-09T12:58:47;22.80;99.90
4386;DHT22;2207;53.540;10.042;2022-09-09T13:01:20;22.60;99.90
4386;DHT22;2207;53.540;10.042;2022-09-09T13:03:48;22.40;99.90
4386;DHT22;2207;53.540;10.042;2022-09-09T13:06:18;22.10;99.90
4386;DHT22;2207;53.540;10.042;2022-09-09T13:08:48;21.90;99.90
4386;DHT22;2207;53.540;10.042;2022-09-09T13:11:15;21.80;99.90
4386;DHT22;2207;53.540;10.042;2022-09-09T13:13:49;21.60;99.90
4386;DHT22;2207;53.540;10.042;2022-09-09T13:16:18;21.50;99.90
4386;DHT22;2207;53.540;10.042;2022-09-09T13:18:46;21.30;99.90
4386;DHT22;2207;53.540;10.042;2022-09-09T13:21:13;21.10;99.90
4386;DHT22;2207;53.540;10.042;2022-09-09T13:23:40;20.90;99.90
4386;DHT22;2207;53.540;10.042;2022-09-09T13:26:19;20.70;99.90
4386;DHT22;2207;53.540;10.042;2022-09-09T13:28:48;20.50;99.90
4386;DHT22;2207;53.540;10.042;2022-09-09T13:31:19;20.20;99.90
4386;DHT22;2207;53.540;10.042;2022-09-09T13:33:46;20.00;99.90
4386;DHT22;2207;53.540;10.042;2022-09-09T13:36:13;19.60;99.90
4386;DHT22;2207;53.540;10.042;2022-09-09T13:38:40;19.40;99.90
4386;DHT22;2207;53.540;10.042;2022-09-09T13:41:19;19.20;99.90
4386;DHT22;2207;53.540;10.042;2022-09-09T13:43:49;18.90;99.90
4386;DHT22;2207;53.540;10.042;2022-09-09T13:46:26;18.70;99.90
4386;DHT22;2207;53.540;10.042;2022-09-09T13:48:55;18.50;99.90
4386;DHT22;2207;53.540;10.042;2022-09-09T13:51:26;18.40;99.90
4386;DHT22;2207;53.540;10.042;2022-09-09T13:53:55;18.30;99.90
4386;DHT22;2207;53.540;10.042;2022-09-09T13:56:23;18.10;99.90
4386;DHT22;2207;53.540;10.042;2022-09-09T13:58:51;18.10;99.90
4386;DHT22;2207;53.540;10.042;2022-09-09T14:01:18;18.00;99.90
4386;DHT22;2207;53.540;10.042;2022-09-09T14:03:44;18.00;99.90
4386;DHT22;2207;53.540;10.042;2022-09-09T14:06:14;17.90;99.90
4386;DHT22;2207;53.540;10.042;2022-09-09T14:08:41;17.90;99.90
4386;DHT22;2207;53.540;10.042;2022-09-09T14:11:08;17.90;99.90
4386;DHT22;2207;53.540;10.042;2022-09-09T14:13:37;17.80;99.90
4386;DHT22;2207;53.540;10.042;2022-09-09T14:16:05;17.90;99.90
4386;DHT22;2207;53.540;10.042;2022-09-09T14:18:32;17.90;99.90
4386;DHT22;2207;53.540;10.042;2022-09-09T14:21:00;17.90;99.90
4386;DHT22;2207;53.540;10.042;2022-09-09T14:23:28;17.90;99.90
4386;DHT22;2207;53.540;10.042;2022-09-09T14:25:55;17.80;99.90
4386;DHT22;2207;53.540;10.042;2022-09-09T14:28:22;17.80;99.90
4386;DHT22;2207;53.540;10.042;2022-09-09T14:30:49;17.80;99.90
4386;DHT22;2207;53.540;10.042;2022-09-09T14:33:17;17.70;99.90
4386;DHT22;2207;53.540;10.042;2022-09-09T14:35:44;17.60;99.90
4386;DHT22;2207;53.540;10.042;2022-09-09T14:38:11;17.60;99.90
4386;DHT22;2207;53.540;10.042;2022-09-09T14:40:38;17.50;99.90
4386;DHT22;2207;53.540;10.042;2022-09-09T14:43:04;17.50;99.90
4386;DHT22;2207;53.540;10.042;2022-09-09T14:45:31;17.50;99.90
4386;DHT22;2207;53.540;10.042;2022-09-09T14:47:58;17.50;99.90
4386;DHT22;2207;53.540;10.042;2022-09-09T14:50:26;17.50;99.90
4386;DHT22;2207;53.540;10.042;2022-09-09T14:52:54;17.50;99.90
4386;DHT22;2207;53.540;10.042;2022-09-09T14:55:20;17.60;99.90
4386;DHT22;2207;53.540;10.042;2022-09-09T14:57:47;17.50;99.90
4386;DHT22;2207;53.540;10.042;2022-09-09T15:00:14;17.50;99.90
4386;DHT22;2207;53.540;10.042;2022-09-09T15:02:41;17.50;99.90
4386;DHT22;2207;53.540;10.042;2022-09-09T15:05:08;17.50;99.90
4386;DHT22;2207;53.540;10.042;2022-09-09T15:07:37;17.40;99.90
4386;DHT22;2207;53.540;10.042;2022-09-09T15:10:04;17.40;99.90
4386;DHT22;2207;53.540;10.042;2022-09-09T15:12:31;17.40;99.90
4386;DHT22;2207;53.540;10.042;2022-09-09T15:14:58;17.40;99.90
4386;DHT22;2207;53.540;10.042;2022-09-09T15:17:25;17.40;99.90
4386;DHT22;2207;53.540;10.042;2022-09-09T15:19:52;17.40;99.90
4386;DHT22;2207;53.540;10.042;2022-09-09T15:22:19;17.40;99.90
4386;DHT22;2207;53.540;10.042;2022-09-09T15:24:47;17.50;99.90
4386;DHT22;2207;53.540;10.042;2022-09-09T15:27:14;17.50;99.90
4386;DHT22;2207;53.540;10.042;2022-09-09T15:29:41;17.50;99.90
4386;DHT22;2207;53.540;10.042;2022-09-09T15:32:09;17.60;99.90
4386;DHT22;2207;53.540;10.042;2022-09-09T15:34:36;17.70;99.90
4386;DHT22;2207;53.540;10.042;2022-09-09T15:37:02;17.80;99.90
4386;DHT22;2207;53.540;10.042;2022-09-09T15:39:29;17.80;99.90
4386;DHT22;2207;53.540;10.042;2022-09-09T15:41:57;17.90;99.90
4386;DHT22;2207;53.540;10.042;2022-09-09T15:44:26;18.10;99.90
4386;DHT22;2207;53.540;10.042;2022-09-09T15:46:53;18.30;99.90
4386;DHT22;2207;53.540;10.042;2022-09-09T15:49:20;18.50;99.90
4386;DHT22;2207;53.540;10.042;2022-09-09T15:51:51;18.60;99.90
4386;DHT22;2207;53.540;10.042;2022-09-09T15:54:18;18.80;99.90
4386;DHT22;2207;53.540;10.042;2022-09-09T15:56:46;18.80;99.90
4386;DHT22;2207;53.540;10.042;2022-09-09T15:59:15;18.90;99.90
4386;DHT22;2207;53.540;10.042;2022-09-09T16:01:42;19.00;99.90
4386;DHT22;2207;53.540;10.042;2022-09-09T16:04:09;19.00;99.90
4386;DHT22;2207;53.540;10.042;2022-09-09T16:06:36;19.10;99.90